Time;durP1;ratioP1;P1;durP2;ratioP2;P2;SDS_P1;SDS_P2;PMS_P1;PMS_P2;Temp;Humidity;BMP_temperature;BMP_pressure;BME280_temperature;BME280_humidity;BME280_pressure;Samples;Min_cycle;Max_cycle;Signal;HPM_P1;HPM_P2
2022/10/22 00:01:59;;;;;;;9.18;4.60;;;;;;;12.45;100.00;100816.28;5105864;28;20035;-60
2022/10/22 00:04:24;;;;;;;7.28;4.50;;;;;;;12.43;100.00;100817.47;5111207;28;20031;-58
2022/10/22 00:06:50;;;;;;;8.35;4.50;;;;;;;12.41;100.00;100814.97;5110670;28;20463;-59
2022/10/22 00:09:15;;;;;;;8.48;4.40;;;;;;;12.35;100.00;100818.31;5109435;28;20482;-58
2022/10/22 00:11:41;;;;;;;8.95;4.75;;;;;;;12.35;100.00;100824.44;5106253;28;20039;-60
2022/10/22 00:14:07;;;;;;;9.95;4.97;;;;;;;12.33;100.00;100807.03;5110679;28;20085;-59
2022/10/22 00:16:32;;;;;;;10.05;4.70;;;;;;;12.31;100.00;100817.84;5110996;28;20490;-59
2022/10/22 00:18:57;;;;;;;14.02;4.55;;;;;;;12.28;100.00;100814.72;5110909;28;20028;-58
2022/10/22 00:21:24;;;;;;;8.18;4.40;;;;;;;12.31;100.00;100809.03;5110810;28;20031;-60
2022/10/22 00:23:49;;;;;;;8.65;4.50;;;;;;;12.32;100.00;100818.66;5110517;28;20115;-59
2022/10/22 00:26:15;;;;;;;10.80;5.03;;;;;;;12.32;100.00;100811.53;5110915;28;20479;-59
2022/10/22 00:28:40;;;;;;;10.15;4.65;;;;;;;12.33;100.00;100812.38;5110582;28;20089;-59
2022/10/22 00:31:06;;;;;;;11.70;5.00;;;;;;;12.30;100.00;100810.88;5111316;28;20026;-59
2022/10/22 00:33:32;;;;;;;9.65;4.65;;;;;;;12.32;100.00;100816.84;5111541;28;20024;-59
2022/10/22 00:35:57;;;;;;;10.15;4.95;;;;;;;12.33;100.00;100817.69;5109944;28;20035;-58
2022/10/22 00:38:22;;;;;;;11.05;4.68;;;;;;;12.29;100.00;100816.38;5110729;28;20024;-59
2022/10/22 00:40:48;;;;;;;13.57;5.05;;;;;;;12.31;100.00;100827.63;5102238;28;20055;-58
2022/10/22 00:43:16;;;;;;;9.85;4.90;;;;;;;12.32;100.00;100826.63;5111794;28;20026;-58
2022/10/22 00:45:41;;;;;;;11.55;4.80;;;;;;;12.33;100.00;100817.69;5110440;28;20043;-59
2022/10/22 00:48:11;;;;;;;13.63;5.35;;;;;;;12.34;100.00;100824.66;5111133;28;20076;-59
2022/10/22 00:50:40;;;;;;;10.40;5.00;;;;;;;12.35;100.00;100820.97;5101049;28;20497;-59
2022/10/22 00:53:11;;;;;;;11.68;5.25;;;;;;;12.33;100.00;100820.34;5111302;28;20023;-59
2022/10/22 00:55:38;;;;;;;13.73;5.07;;;;;;;12.31;100.00;100817.00;5111063;28;20031;-59
2022/10/22 00:58:03;;;;;;;12.10;5.07;;;;;;;12.33;100.00;100820.34;5111683;28;20027;-59
2022/10/22 01:00:28;;;;;;;12.00;5.00;;;;;;;12.34;100.00;100816.66;5101136;28;20505;-59
2022/10/22 01:02:54;;;;;;;12.00;5.03;;;;;;;12.30;100.00;100813.53;5105986;28;20044;-59
2022/10/22 01:05:20;;;;;;;8.88;4.50;;;;;;;12.29;100.00;100816.38;5110255;28;20043;-59
2022/10/22 01:07:51;;;;;;;15.15;5.20;;;;;;;12.28;100.00;100814.72;5111531;28;20028;-59
2022/10/22 01:10:16;;;;;;;13.88;5.20;;;;;;;12.30;100.00;100813.53;5110980;28;20384;-59
2022/10/22 01:13:10;;;;;;;13.13;5.35;;;;;;;12.32;100.00;100816.00;5114865;28;20036;-59
2022/10/22 01:15:40;;;;;;;11.77;5.45;;;;;;;12.36;100.00;100817.31;5109500;28;20055;-59
2022/10/22 01:18:24;;;;;;;12.75;5.50;;;;;;;12.34;100.00;100816.66;5111657;28;20051;-62
2022/10/22 01:21:10;;;;;;;13.65;5.93;;;;;;;12.38;100.00;100815.31;5113331;28;20130;-58
2022/10/22 01:24:08;;;;;;;12.10;5.40;;;;;;;12.36;100.00;100807.53;5105643;28;20108;-59
2022/10/22 01:27:10;;;;;;;10.38;5.47;;;;;;;12.35;100.00;100815.66;5111802;28;20164;-59
2022/10/22 01:29:45;;;;;;;14.02;5.47;;;;;;;12.34;100.00;100808.69;5112593;28;20077;-59
2022/10/22 01:32:15;;;;;;;10.25;5.72;;;;;;;12.33;100.00;100807.03;5112368;28;20312;-59
2022/10/22 01:34:45;;;;;;;9.88;5.50;;;;;;;12.31;100.00;100809.03;5113713;28;20031;-59
2022/10/22 01:37:13;;;;;;;10.15;5.20;;;;;;;12.32;100.00;100813.34;5112796;28;20076;-59
2022/10/22 01:39:41;;;;;;;12.70;5.72;;;;;;;12.29;100.00;100809.19;5114451;28;20052;-59
2022/10/22 01:42:06;;;;;;;10.90;5.93;;;;;;;12.29;100.00;100808.38;5113443;28;20134;-59
2022/10/22 01:44:34;;;;;;;13.82;6.20;;;;;;;12.26;100.00;100800.75;5112449;28;20111;-58
2022/10/22 01:47:19;;;;;;;12.30;5.90;;;;;;;12.24;100.00;100801.75;5113057;28;20038;-62
2022/10/22 01:50:12;;;;;;;13.80;6.15;;;;;;;12.29;100.00;100803.06;5109455;28;20111;-60
2022/10/22 01:52:48;;;;;;;13.55;5.45;;;;;;;12.28;100.00;100798.75;5111139;28;20038;-60
2022/10/22 01:55:30;;;;;;;14.13;5.70;;;;;;;12.27;100.00;100805.88;5109896;28;20112;-59
2022/10/22 01:58:13;;;;;;;13.23;6.00;;;;;;;12.25;100.00;100805.25;5112151;28;20114;-60
2022/10/22 02:00:45;;;;;;;13.93;5.70;;;;;;;12.21;100.00;100815.41;5099408;28;20764;-59
2022/10/22 02:03:17;;;;;;;13.93;6.00;;;;;;;12.21;100.00;100810.09;5111651;28;20450;-60
2022/10/22 02:05:48;;;;;;;13.70;5.85;;;;;;;12.22;100.00;100810.91;5113429;28;20410;-59
2022/10/22 02:08:18;;;;;;;11.48;5.63;;;;;;;12.21;100.00;100819.88;5113353;28;20039;-58
2022/10/22 02:10:46;;;;;;;17.35;6.07;;;;;;;12.17;100.00;100808.75;5112546;28;20110;-59
2022/10/22 02:13:17;;;;;;;14.77;5.68;;;;;;;12.16;100.00;100817.75;5111703;28;20027;-58
2022/10/22 02:15:45;;;;;;;15.45;5.85;;;;;;;12.17;100.00;100822.06;5109307;28;20031;-60
2022/10/22 02:18:10;;;;;;;16.90;6.10;;;;;;;12.12;100.00;100811.09;5111408;28;20050;-60
2022/10/22 02:20:39;;;;;;;14.82;5.88;;;;;;;12.12;100.00;100819.09;5105260;28;20484;-59
2022/10/22 02:23:04;;;;;;;12.68;6.20;;;;;;;12.11;100.00;100820.09;5109897;28;20711;-59
2022/10/22 02:25:34;;;;;;;15.55;5.85;;;;;;;12.07;100.00;100813.44;5114296;28;20031;-59
2022/10/22 02:28:11;;;;;;;13.20;6.07;;;;;;;12.08;100.00;100813.28;5113566;28;20031;-59
2022/10/22 02:30:40;;;;;;;11.88;6.20;;;;;;;12.09;100.00;100814.13;5110411;28;20039;-59
2022/10/22 02:33:25;;;;;;;13.70;6.30;;;;;;;12.09;100.00;100811.47;5108879;28;20102;-59
2022/10/22 02:35:51;;;;;;;13.57;5.78;;;;;;;12.03;100.00;100809.47;5113573;28;20042;-59
2022/10/22 02:38:17;;;;;;;15.20;6.13;;;;;;;12.06;100.00;100806.47;5113226;28;20068;-58
2022/10/22 02:40:43;;;;;;;17.02;6.05;;;;;;;12.07;100.00;100810.78;5106857;28;20088;-60
2022/10/22 02:43:08;;;;;;;14.23;5.97;;;;;;;12.06;100.00;100806.47;5111291;28;20420;-58
2022/10/22 02:45:34;;;;;;;17.05;5.90;;;;;;;12.07;100.00;100814.28;5112486;28;20023;-59
2022/10/22 02:48:00;;;;;;;13.70;6.18;;;;;;;12.08;100.00;100807.13;5111465;28;20081;-58
2022/10/22 02:50:26;;;;;;;15.02;6.30;;;;;;;12.09;100.00;100822.91;5106143;28;20103;-60
2022/10/22 02:52:51;;;;;;;15.93;7.00;;;;;;;12.09;100.00;100827.41;5111763;28;20115;-59
2022/10/22 02:55:16;;;;;;;14.02;6.32;;;;;;;12.08;100.00;100825.72;5109521;28;20036;-59
2022/10/22 02:57:42;;;;;;;13.65;6.32;;;;;;;12.07;100.00;100830.25;5112719;28;20102;-59
2022/10/22 03:00:09;;;;;;;14.75;6.28;;;;;;;12.05;100.00;100826.09;5108323;28;20043;-59
2022/10/22 03:02:34;;;;;;;12.60;6.13;;;;;;;12.06;100.00;100822.44;5108438;28;20091;-58
2022/10/22 03:04:59;;;;;;;14.00;6.15;;;;;;;12.05;100.00;100823.44;5112939;28;20115;-59
2022/10/22 03:07:25;;;;;;;15.52;6.25;;;;;;;12.01;100.00;100822.91;5110548;28;20422;-58
2022/10/22 03:09:50;;;;;;;16.67;6.30;;;;;;;12.02;100.00;100829.03;5112259;28;20102;-58
2022/10/22 03:12:15;;;;;;;14.65;6.07;;;;;;;12.01;100.00;100830.06;5110088;28;20394;-59
2022/10/22 03:14:41;;;;;;;16.20;6.60;;;;;;;12.00;100.00;100828.41;5107556;28;20039;-61
2022/10/22 03:17:06;;;;;;;16.38;6.50;;;;;;;11.99;100.00;100827.56;5112630;28;20108;-59
2022/10/22 03:19:31;;;;;;;17.30;6.20;;;;;;;11.99;100.00;100832.88;5106817;28;20042;-59
2022/10/22 03:22:03;;;;;;;19.77;6.25;;;;;;;12.00;100.00;100831.91;5099845;28;20429;-59
2022/10/22 03:24:35;;;;;;;13.43;6.28;;;;;;;11.98;100.00;100832.06;5111336;28;20042;-58
2022/10/22 03:27:00;;;;;;;11.00;5.57;;;;;;;12.02;100.00;100842.34;5112197;28;20038;-59
2022/10/22 03:29:26;;;;;;;13.30;5.70;;;;;;;12.01;100.00;100835.38;5112267;28;20019;-58
2022/10/22 03:31:53;;;;;;;11.55;5.57;;;;;;;12.00;100.00;100839.03;5102548;28;20027;-59
2022/10/22 03:34:19;;;;;;;13.30;6.00;;;;;;;12.02;100.00;100837.88;5108676;28;20472;-60
2022/10/22 03:36:44;;;;;;;13.25;5.70;;;;;;;12.00;100.00;100836.38;5111031;28;20150;-60
2022/10/22 03:39:13;;;;;;;15.05;5.82;;;;;;;11.98;100.00;100841.84;5104823;28;20044;-59
2022/10/22 03:41:39;;;;;;;18.30;5.90;;;;;;;12.02;100.00;100852.97;5105479;28;20038;-58
2022/10/22 03:44:05;;;;;;;13.80;5.43;;;;;;;11.97;100.00;100849.00;5108585;28;20027;-59
2022/10/22 03:46:30;;;;;;;16.60;6.30;;;;;;;12.02;100.00;100859.13;5111409;28;20413;-59
2022/10/22 03:48:55;;;;;;;15.93;6.13;;;;;;;12.00;100.00;100850.50;5109865;28;20023;-58
2022/10/22 03:51:21;;;;;;;18.10;5.95;;;;;;;12.02;100.00;100853.81;5107178;28;20043;-60
2022/10/22 03:53:46;;;;;;;15.48;6.35;;;;;;;12.03;100.00;100862.63;5108145;28;20022;-59
2022/10/22 03:56:12;;;;;;;15.15;5.47;;;;;;;12.02;100.00;100866.25;5093990;28;20099;-59
2022/10/22 03:58:39;;;;;;;13.75;6.20;;;;;;;12.01;100.00;100867.25;5103940;28;20099;-59
2022/10/22 04:01:10;;;;;;;15.10;6.20;;;;;;;12.01;100.00;100867.25;5101743;28;20028;-60
2022/10/22 04:03:35;;;;;;;16.08;5.80;;;;;;;12.02;100.00;100866.25;5105249;28;20027;-59
2022/10/22 04:06:02;;;;;;;15.98;5.78;;;;;;;11.98;100.00;100861.28;5110419;28;20050;-59
2022/10/22 04:08:29;;;;;;;15.60;5.80;;;;;;;12.00;100.00;100863.78;5110821;28;20036;-59
2022/10/22 04:10:54;;;;;;;15.70;5.82;;;;;;;12.04;100.00;100866.97;5095816;28;20035;-59
2022/10/22 04:13:19;;;;;;;14.48;5.53;;;;;;;12.05;100.00;100873.94;5110663;28;20028;-59
2022/10/22 04:15:45;;;;;;;18.58;5.88;;;;;;;12.05;100.00;100868.63;5110992;28;20055;-58
2022/10/22 04:18:10;;;;;;;16.08;6.18;;;;;;;12.05;100.00;100879.25;5110477;28;20024;-59
2022/10/22 04:20:35;;;;;;;18.27;6.05;;;;;;;12.04;100.00;100873.09;5109081;28;20016;-59
2022/10/22 04:23:00;;;;;;;19.75;5.90;;;;;;;12.05;100.00;100877.41;5108653;28;20032;-60
2022/10/22 04:25:26;;;;;;;16.70;5.55;;;;;;;12.06;100.00;100875.59;5111721;28;20027;-59
2022/10/22 04:27:51;;;;;;;23.52;6.03;;;;;;;12.08;100.00;100873.56;5110090;28;20031;-60
2022/10/22 04:30:16;;;;;;;20.95;5.80;;;;;;;12.07;100.00;100877.25;5107560;28;20089;-58
2022/10/22 04:32:42;;;;;;;16.15;5.63;;;;;;;12.06;100.00;100867.59;5110980;28;20027;-59
2022/10/22 04:35:07;;;;;;;16.00;5.63;;;;;;;12.07;100.00;100877.25;5106864;28;20023;-58
2022/10/22 04:37:33;;;;;;;17.40;5.85;;;;;;;12.07;100.00;100880.75;5112085;28;20051;-60
2022/10/22 04:39:58;;;;;;;20.30;5.88;;;;;;;12.07;100.00;100878.09;5107122;28;20047;-58
2022/10/22 04:42:23;;;;;;;21.00;5.75;;;;;;;12.09;100.00;100869.94;5105504;28;20036;-58
2022/10/22 04:44:48;;;;;;;20.33;5.85;;;;;;;12.09;100.00;100875.25;5103806;28;20019;-59
2022/10/22 04:47:14;;;;;;;18.30;5.78;;;;;;;12.09;100.00;100878.72;5113527;28;20031;-59
2022/10/22 04:49:39;;;;;;;21.13;6.05;;;;;;;12.09;100.00;100876.06;5112856;28;20494;-59
2022/10/22 04:52:04;;;;;;;17.40;5.82;;;;;;;12.07;100.00;100872.75;5113743;28;20027;-59
2022/10/22 04:54:30;;;;;;;17.85;5.70;;;;;;;12.12;100.00;100888.19;5113922;28;20079;-59
2022/10/22 04:56:55;;;;;;;20.90;5.68;;;;;;;12.11;100.00;100879.38;5112925;28;20027;-62
2022/10/22 04:59:20;;;;;;;22.17;6.38;;;;;;;12.15;100.00;100877.22;5106465;28;20055;-59
2022/10/22 05:01:45;;;;;;;21.77;5.93;;;;;;;12.15;100.00;100890.53;5105396;28;20063;-59
2022/10/22 05:04:14;;;;;;;21.05;5.95;;;;;;;12.14;100.00;100882.72;5110678;28;20023;-58
2022/10/22 05:06:40;;;;;;;19.35;6.20;;;;;;;12.15;100.00;100889.69;5114424;28;20028;-59
2022/10/22 05:09:09;;;;;;;20.02;6.60;;;;;;;12.17;100.00;100883.19;5109302;28;20651;-59
2022/10/22 05:11:37;;;;;;;21.05;6.30;;;;;;;12.21;100.00;100895.16;5109579;28;20059;-58
2022/10/22 05:14:04;;;;;;;18.77;6.20;;;;;;;12.22;100.00;100891.50;5111506;28;20488;-61
2022/10/22 05:16:31;;;;;;;21.63;6.22;;;;;;;12.26;100.00;100891.97;5105821;28;20386;-59
2022/10/22 05:18:58;;;;;;;20.77;5.95;;;;;;;12.27;100.00;100890.97;5105400;27;20591;-60
2022/10/22 05:21:23;;;;;;;17.27;5.63;;;;;;;12.29;100.00;100886.31;5102992;28;20031;-59
2022/10/22 05:23:49;;;;;;;20.83;6.30;;;;;;;12.31;100.00;100894.13;5106438;28;20452;-59
2022/10/22 05:26:18;;;;;;;16.58;5.88;;;;;;;12.32;100.00;100898.44;5108869;28;20020;-58
2022/10/22 05:28:43;;;;;;;20.48;5.60;;;;;;;12.34;100.00;100894.59;5104565;28;20119;-58
2022/10/22 05:31:11;;;;;;;18.27;5.93;;;;;;;12.31;100.00;100894.13;5102091;28;20217;-59
2022/10/22 05:33:37;;;;;;;20.05;6.10;;;;;;;12.36;100.00;100892.63;5103944;28;20032;-59
2022/10/22 05:36:04;;;;;;;17.83;5.93;;;;;;;12.36;100.00;100899.75;5105232;28;20034;-59
2022/10/22 05:38:31;;;;;;;20.60;6.07;;;;;;;12.37;100.00;100904.06;5105039;28;20019;-59
2022/10/22 05:41:08;;;;;;;18.95;5.78;;;;;;;12.32;100.00;100901.09;5103056;28;20108;-59
2022/10/22 05:43:34;;;;;;;17.55;5.68;;;;;;;12.35;100.00;100914.06;5105372;28;20051;-58
2022/10/22 05:46:05;;;;;;;22.88;5.80;;;;;;;12.36;100.00;100913.03;5105683;28;20028;-58
2022/10/22 05:48:31;;;;;;;17.70;5.57;;;;;;;12.37;100.00;100914.69;5105989;28;20088;-62
2022/10/22 05:50:56;;;;;;;18.40;5.30;;;;;;;12.36;100.00;100918.38;5107789;28;20019;-60
2022/10/22 05:53:21;;;;;;;15.30;4.78;;;;;;;12.36;100.00;100913.88;5108458;28;20043;-60
2022/10/22 05:55:47;;;;;;;17.50;4.97;;;;;;;12.35;100.00;100922.03;5106353;28;20466;-59
2022/10/22 05:58:12;;;;;;;14.55;4.88;;;;;;;12.35;100.00;100922.03;5104089;28;20031;-60
2022/10/22 06:00:38;;;;;;;15.80;5.20;;;;;;;12.32;100.00;100933.84;5101873;28;20386;-60
2022/10/22 06:03:04;;;;;;;19.30;4.80;;;;;;;12.32;100.00;100930.34;5106706;28;20027;-59
2022/10/22 06:05:29;;;;;;;15.20;4.85;;;;;;;12.30;100.00;100932.34;5102723;28;20538;-59
2022/10/22 06:07:56;;;;;;;13.95;4.93;;;;;;;12.28;100.00;100937.00;5101862;28;20039;-60
2022/10/22 06:10:21;;;;;;;15.90;4.55;;;;;;;12.29;100.00;100944.00;5102853;28;20046;-60
2022/10/22 06:12:47;;;;;;;19.40;5.10;;;;;;;12.27;100.00;100940.66;5101248;28;20467;-59
2022/10/22 06:15:17;;;;;;;18.05;4.78;;;;;;;12.26;100.00;100949.63;5103878;28;20126;-59
2022/10/22 06:17:43;;;;;;;16.50;4.78;;;;;;;12.25;100.00;100943.50;5103371;28;20084;-60
2022/10/22 06:20:10;;;;;;;14.90;4.90;;;;;;;12.24;100.00;100953.28;5099808;28;20024;-60
2022/10/22 06:22:35;;;;;;;15.77;4.40;;;;;;;12.24;100.00;100953.28;5104401;28;20065;-59
2022/10/22 06:25:00;;;;;;;13.45;4.47;;;;;;;12.27;100.00;100964.56;5104853;28;20043;-59
2022/10/22 06:27:25;;;;;;;13.68;4.30;;;;;;;12.27;100.00;100964.56;5103823;28;20038;-60
2022/10/22 06:29:51;;;;;;;16.08;4.70;;;;;;;12.29;100.00;100970.56;5100520;28;20060;-59
2022/10/22 06:32:16;;;;;;;14.45;4.20;;;;;;;12.27;100.00;100984.03;5103459;28;20024;-59
2022/10/22 06:34:41;;;;;;;12.70;4.20;;;;;;;12.26;100.00;100979.72;5100334;28;20024;-59
2022/10/22 06:37:09;;;;;;;12.25;4.00;;;;;;;12.24;100.00;100974.56;5098869;28;20019;-59
2022/10/22 06:39:34;;;;;;;15.88;4.30;;;;;;;12.24;100.00;100987.84;5100852;28;20044;-59
2022/10/22 06:41:59;;;;;;;17.25;3.90;;;;;;;12.27;100.00;100988.50;5099188;28;20055;-59
2022/10/22 06:44:24;;;;;;;13.80;4.20;;;;;;;12.24;100.00;100990.50;5097423;28;20027;-59
2022/10/22 06:46:51;;;;;;;18.60;4.35;;;;;;;12.24;100.00;100995.84;5105734;28;20031;-60
2022/10/22 06:49:17;;;;;;;13.35;4.18;;;;;;;12.24;100.00;101000.34;5099806;28;20077;-60
2022/10/22 06:51:42;;;;;;;15.30;4.05;;;;;;;12.23;100.00;101004.81;5098219;28;20024;-60
2022/10/22 06:54:09;;;;;;;16.73;4.10;;;;;;;12.22;100.00;101002.31;5100314;28;20384;-60
2022/10/22 06:56:34;;;;;;;13.38;3.90;;;;;;;12.23;100.00;101009.28;5106506;28;20023;-60
2022/10/22 06:58:59;;;;;;;12.88;3.95;;;;;;;12.21;100.00;101013.94;5101664;28;20609;-60
2022/10/22 07:01:33;;;;;;;16.80;4.22;;;;;;;12.20;100.00;101015.78;5103770;28;20028;-60
2022/10/22 07:03:59;;;;;;;12.38;3.85;;;;;;;12.21;100.00;101025.44;5107375;28;20117;-59
2022/10/22 07:06:26;;;;;;;13.98;3.95;;;;;;;12.23;100.00;101026.09;5103641;28;20027;-59
2022/10/22 07:08:53;;;;;;;17.80;4.07;;;;;;;12.21;100.00;101028.09;5101049;27;20035;-60
2022/10/22 07:11:19;;;;;;;12.32;3.92;;;;;;;12.27;100.00;101041.69;5103487;28;20020;-60
2022/10/22 07:13:45;;;;;;;12.35;4.20;;;;;;;12.31;100.00;101037.69;5103588;28;20032;-59
2022/10/22 07:16:11;;;;;;;16.80;4.40;;;;;;;12.36;100.00;101046.00;5103040;28;20100;-60
2022/10/22 07:18:38;;;;;;;17.70;4.20;;;;;;;12.38;100.00;101044.00;5103740;28;20543;-59
2022/10/22 07:21:04;;;;;;;13.73;4.03;;;;;;;12.44;100.00;101048.66;5099981;28;20027;-61
2022/10/22 07:23:30;;;;;;;12.07;3.80;;;;;;;12.45;100.00;101047.66;5102507;28;20528;-60
2022/10/22 07:25:55;;;;;;;10.63;3.53;;;;;;;12.45;100.00;101049.50;5101738;28;20031;-60
2022/10/22 07:28:21;;;;;;;11.10;3.90;;;;;;;12.47;100.00;101052.81;5102051;28;20108;-60
2022/10/22 07:30:46;;;;;;;10.27;3.88;;;;;;;12.49;100.00;101056.94;5101175;28;20024;-60
2022/10/22 07:33:12;;;;;;;13.02;3.97;;;;;;;12.51;100.00;101062.94;5105798;28;20058;-59
2022/10/22 07:35:39;;;;;;;17.52;4.00;;;;;;;12.53;100.00;101067.28;5102318;28;20123;-60
2022/10/22 07:38:05;;;;;;;12.20;3.90;;;;;;;12.54;100.00;101072.44;5098379;28;20020;-60
2022/10/22 07:40:30;;;;;;;15.40;3.58;;;;;;;12.57;100.00;101068.56;5102646;28;20039;-60
2022/10/22 07:42:56;;;;;;;13.90;3.90;;;;;;;12.62;100.00;101072.41;5104761;28;20497;-60
2022/10/22 07:45:21;;;;;;;14.30;3.70;;;;;;;12.70;100.00;101073.38;5097954;28;20530;-60
2022/10/22 07:47:47;;;;;;;11.27;3.47;;;;;;;12.74;100.00;101069.38;5103321;28;20020;-59
2022/10/22 07:50:12;;;;;;;13.57;3.85;;;;;;;12.76;100.00;101072.69;5098001;28;20047;-60
2022/10/22 07:52:38;;;;;;;13.48;3.75;;;;;;;12.81;100.00;101080.16;5101849;28;20035;-60
2022/10/22 07:55:04;;;;;;;17.77;3.78;;;;;;;12.84;100.00;101085.16;5097024;28;20044;-60
2022/10/22 07:57:29;;;;;;;17.95;3.75;;;;;;;12.83;100.00;101084.31;5102304;28;20034;-62
2022/10/22 07:59:56;;;;;;;10.55;3.58;;;;;;;12.86;100.00;101088.47;5097811;28;20034;-61
2022/10/22 08:02:21;;;;;;;16.58;3.50;;;;;;;12.87;100.00;101090.13;5100648;28;20064;-60
2022/10/22 08:04:47;;;;;;;12.18;3.67;;;;;;;12.88;100.00;101092.63;5102818;28;20055;-59
2022/10/22 08:07:12;;;;;;;13.60;3.60;;;;;;;12.90;100.00;101100.44;5100794;28;20039;-60
2022/10/22 08:09:37;;;;;;;12.30;3.00;;;;;;;12.93;100.00;101102.75;5096680;28;20420;-60
2022/10/22 08:12:03;;;;;;;13.30;3.42;;;;;;;12.97;100.00;101092.63;5099574;28;20031;-60
2022/10/22 08:14:28;;;;;;;10.40;3.42;;;;;;;13.03;100.00;101108.72;5101752;28;20016;-60
2022/10/22 08:16:53;;;;;;;14.50;3.53;;;;;;;13.15;100.00;101108.34;5102685;28;20525;-60
2022/10/22 08:19:20;;;;;;;13.05;3.35;;;;;;;13.23;100.00;101108.31;5098692;28;20031;-60
2022/10/22 08:21:45;;;;;;;16.70;3.25;;;;;;;13.31;100.00;101102.13;5105578;28;20043;-60
2022/10/22 08:24:11;;;;;;;11.18;3.28;;;;;;;13.38;100.00;101118.25;5103089;28;20385;-60
2022/10/22 08:26:36;;;;;;;12.65;3.20;;;;;;;13.40;100.00;101118.91;5104397;28;20394;-59
2022/10/22 08:29:02;;;;;;;12.07;3.40;;;;;;;13.42;100.00;101122.25;5105548;28;20038;-58
2022/10/22 08:31:27;;;;;;;12.30;3.33;;;;;;;13.48;100.00;101132.22;5106197;28;20032;-60
2022/10/22 08:33:52;;;;;;;13.85;3.00;;;;;;;13.57;100.00;101133.84;5106388;28;20422;-60
2022/10/22 08:36:18;;;;;;;13.98;3.10;;;;;;;13.64;100.00;101131.31;5100786;28;20024;-60
2022/10/22 08:38:43;;;;;;;15.13;3.10;;;;;;;13.75;100.00;101139.91;5109646;28;20020;-60
2022/10/22 08:41:13;;;;;;;9.15;2.97;;;;;;;13.81;100.00;101134.72;5103878;28;20072;-59
2022/10/22 08:43:58;;;;;;;11.70;3.00;;;;;;;13.84;100.00;101145.03;5103877;28;20035;-59
2022/10/22 08:46:45;;;;;;;12.45;2.90;;;;;;;13.91;100.00;101145.16;5109454;28;20039;-60
2022/10/22 08:49:23;;;;;;;10.93;3.20;;;;;;;13.95;100.00;101145.63;5106776;28;20390;-60
2022/10/22 08:51:49;;;;;;;12.60;3.35;;;;;;;14.04;100.00;101165.91;5103802;28;20092;-62
2022/10/22 08:54:36;;;;;;;13.88;3.40;;;;;;;14.09;100.00;101160.88;5105800;28;20023;-61
2022/10/22 08:57:07;;;;;;;11.32;2.88;;;;;;;14.13;100.00;101170.16;5104325;28;20028;-59
2022/10/22 08:59:33;;;;;;;8.68;2.80;;;;;;;14.17;100.00;101164.50;5103882;28;20041;-59
2022/10/22 09:01:58;;;;;;;12.02;2.88;;;;;;;14.20;100.00;101174.78;5105917;28;20105;-59
2022/10/22 09:04:30;;;;;;;13.73;2.88;;;;;;;14.23;100.00;101180.63;5104308;28;20042;-60
2022/10/22 09:06:58;;;;;;;13.77;3.08;;;;;;;14.25;100.00;101178.59;5107660;28;20111;-59
2022/10/22 09:09:28;;;;;;;15.18;3.40;;;;;;;14.30;99.49;101185.25;5104569;28;20386;-59
2022/10/22 09:11:56;;;;;;;12.05;2.83;;;;;;;14.30;98.68;101180.72;5105963;28;20032;-60
2022/10/22 09:14:24;;;;;;;11.10;2.72;;;;;;;14.30;100.00;101185.25;5102639;28;20031;-60
2022/10/22 09:17:09;;;;;;;11.18;2.90;;;;;;;14.32;100.00;101194.75;5102737;28;20020;-59
2022/10/22 09:19:48;;;;;;;14.30;3.30;;;;;;;14.38;98.54;101196.69;5104583;28;20491;-59
2022/10/22 09:22:37;;;;;;;12.65;3.40;;;;;;;14.34;99.46;101202.53;5106384;28;20043;-60
2022/10/22 09:25:18;;;;;;;14.52;2.92;;;;;;;14.37;97.94;101208.34;5103859;28;21108;-58
2022/10/22 09:27:43;;;;;;;13.68;3.35;;;;;;;14.30;98.81;101207.41;5104737;28;20051;-59
2022/10/22 09:30:15;;;;;;;12.65;3.40;;;;;;;14.30;98.58;101204.72;5102227;28;20040;-60
2022/10/22 09:32:40;;;;;;;13.80;2.70;;;;;;;14.29;99.45;101208.41;5101680;28;20383;-58
2022/10/22 09:35:10;;;;;;;11.85;2.95;;;;;;;14.30;99.40;101217.25;5104461;28;20038;-58
2022/10/22 09:37:45;;;;;;;12.75;2.97;;;;;;;14.30;99.38;101226.06;5101760;28;20027;-59
2022/10/22 09:40:13;;;;;;;11.40;3.00;;;;;;;14.31;98.59;101230.41;5101147;28;20392;-56
2022/10/22 09:42:39;;;;;;;12.70;3.00;;;;;;;14.34;98.84;101219.38;5104832;28;20023;-55
2022/10/22 09:45:05;;;;;;;11.90;3.17;;;;;;;14.34;99.56;101224.72;5100154;28;20036;-52
2022/10/22 09:47:37;;;;;;;12.88;3.08;;;;;;;14.37;99.68;101223.53;5107552;27;20027;-56
2022/10/22 09:50:20;;;;;;;14.90;3.20;;;;;;;14.45;98.88;101230.66;5100768;28;20071;-60
2022/10/22 09:53:03;;;;;;;11.82;3.53;;;;;;;14.55;97.90;101233.91;5105615;28;20032;-60
2022/10/22 09:55:28;;;;;;;13.70;2.95;;;;;;;14.54;97.98;101240.25;5103283;28;20031;-59
2022/10/22 09:57:56;;;;;;;9.80;2.97;;;;;;;14.57;97.31;101241.75;5106063;28;20022;-59
2022/10/22 10:00:23;;;;;;;8.82;2.88;;;;;;;14.58;98.20;101251.41;5103095;28;20467;-59
2022/10/22 10:02:54;;;;;;;13.38;3.20;;;;;;;14.59;98.11;101248.56;5109510;28;20559;-61
2022/10/22 10:05:25;;;;;;;8.27;2.78;;;;;;;14.59;98.19;101253.91;5103669;28;20463;-60
2022/10/22 10:07:50;;;;;;;12.40;2.85;;;;;;;14.64;98.22;101266.69;5103249;28;20040;-59
2022/10/22 10:10:40;;;;;;;13.80;2.92;;;;;;;14.65;98.38;101263.03;5104878;28;20080;-59
2022/10/22 10:13:25;;;;;;;13.88;3.20;;;;;;;14.68;98.14;101272.50;5103357;28;20370;-60
2022/10/22 10:16:04;;;;;;;16.25;3.30;;;;;;;14.71;97.34;101272.16;5104682;28;20031;-60
2022/10/22 10:18:48;;;;;;;14.15;3.33;;;;;;;14.68;97.89;101273.34;5104926;28;20028;-59
2022/10/22 10:21:44;;;;;;;11.07;2.90;;;;;;;14.71;97.85;101277.50;5104565;28;20386;-60
2022/10/22 10:24:25;;;;;;;11.57;3.17;;;;;;;14.70;96.86;101281.19;5104236;28;20038;-60
2022/10/22 10:26:58;;;;;;;10.82;2.90;;;;;;;14.74;97.84;101283.34;5106794;28;20084;-59
2022/10/22 10:29:23;;;;;;;;;;;;;;;14.85;97.90;101284.75;5107842;28;20531;-59
2022/10/22 10:32:26;;;;;;;14.40;3.15;;;;;;;14.88;97.03;101281.75;5105259;28;19998;-61
2022/10/22 10:35:04;;;;;;;13.55;3.15;;;;;;;14.93;96.73;101287.38;5098310;28;20035;-61
2022/10/22 10:37:37;;;;;;;12.88;3.20;;;;;;;14.95;96.70;101284.50;5102310;28;20118;-59
2022/10/22 10:40:14;;;;;;;13.15;3.10;;;;;;;15.02;96.18;101289.97;5099766;27;20495;-60
2022/10/22 10:42:50;;;;;;;11.23;3.13;;;;;;;15.04;95.73;101288.78;5105039;28;20156;-60
2022/10/22 10:45:36;;;;;;;11.73;3.20;;;;;;;15.07;95.42;101293.75;5104008;28;20023;-59
2022/10/22 10:48:04;;;;;;;13.85;3.30;;;;;;;15.19;92.63;101304.00;5101242;28;20470;-58
2022/10/22 10:51:00;;;;;;;8.88;3.00;;;;;;;15.13;93.87;101302.06;5100609;28;20118;-60
2022/10/22 10:54:02;;;;;;;13.85;3.40;;;;;;;15.15;94.51;101303.53;5104102;28;20046;-59
2022/10/22 10:56:54;;;;;;;10.65;3.45;;;;;;;15.23;93.69;101297.31;5098760;28;20101;-59
2022/10/22 10:59:40;;;;;;;12.30;3.20;;;;;;;15.30;92.93;101289.41;5095234;28;20075;-59
2022/10/22 11:02:32;;;;;;;12.00;3.30;;;;;;;15.37;92.72;101290.31;5103167;28;20023;-59
2022/10/22 11:05:43;;;;;;;10.85;3.00;;;;;;;15.41;92.82;101280.94;5104475;28;20027;-59
2022/10/22 11:08:31;;;;;;;11.48;3.40;;;;;;;15.48;92.58;101296.25;5101130;28;20032;-59
2022/10/22 11:11:05;;;;;;;16.55;3.42;;;;;;;15.51;92.29;101287.84;5101549;28;20070;-58
2022/10/22 11:13:44;;;;;;;10.18;3.13;;;;;;;15.62;90.72;101294.56;5103706;28;20020;-63
2022/10/22 11:16:16;;;;;;;14.27;3.30;;;;;;;15.65;89.58;101299.56;5101584;28;20103;-62
2022/10/22 11:19:10;;;;;;;15.60;3.55;;;;;;;15.81;89.22;101299.38;5101134;27;20039;-60
2022/10/22 11:21:42;;;;;;;13.45;3.40;;;;;;;15.84;87.23;101300.88;5093672;28;20362;-60
2022/10/22 11:24:19;;;;;;;14.48;3.42;;;;;;;15.82;87.48;101300.19;5102379;28;20042;-60